createdAt,value
2019-03-26T00:00:56.138Z,62.40
2019-03-26T00:05:47.081Z,62.60
2019-03-26T00:10:38.002Z,62.90
2019-03-26T00:15:28.913Z,63.40
2019-03-26T00:20:19.837Z,63.70
2019-03-26T00:25:10.726Z,64.00
2019-03-26T00:30:01.672Z,64.10
2019-03-26T00:34:52.561Z,64.40
2019-03-26T00:39:43.513Z,63.00
2019-03-26T00:44:34.418Z,62.30
2019-03-26T00:49:25.350Z,62.40
2019-03-26T00:54:16.265Z,62.80
2019-03-26T00:59:07.153Z,63.00
2019-03-26T01:03:58.052Z,63.20
2019-03-26T01:08:49.740Z,63.70
2019-03-26T01:13:40.625Z,63.70
2019-03-26T01:18:31.512Z,64.30
2019-03-26T01:23:23.212Z,62.30
2019-03-26T01:28:14.108Z,62.30
2019-03-26T01:33:05.001Z,62.30
2019-03-26T01:37:57.715Z,63.10
2019-03-26T01:42:48.627Z,63.10
2019-03-26T01:47:39.525Z,63.50
2019-03-26T01:52:30.417Z,63.70
2019-03-26T01:57:22.062Z,64.00
2019-03-26T02:02:12.958Z,64.00
2019-03-26T02:07:04.653Z,63.30
2019-03-26T02:11:55.566Z,63.30
2019-03-26T02:16:46.482Z,62.70
2019-03-26T02:21:37.443Z,63.00
2019-03-26T02:26:28.359Z,63.40
2019-03-26T02:31:19.388Z,63.80
2019-03-26T02:36:11.155Z,64.30
2019-03-26T02:41:02.098Z,64.30
2019-03-26T02:45:53.091Z,64.60
2019-03-26T02:50:44.084Z,65.10
2019-03-26T02:55:35.764Z,63.50
2019-03-26T03:00:26.683Z,63.50
2019-03-26T03:05:33.866Z,63.30
2019-03-26T03:10:08.605Z,63.70
2019-03-26T03:14:59.530Z,64.10
2019-03-26T03:19:50.518Z,64.40
2019-03-26T03:24:42.196Z,64.80
2019-03-26T03:29:33.113Z,64.80
2019-03-26T03:34:24.060Z,64.90
2019-03-26T03:39:14.976Z,65.50
2019-03-26T03:44:05.925Z,64.20
2019-03-26T03:48:57.612Z,63.40
2019-03-26T03:53:48.590Z,63.40
2019-03-26T03:58:40.250Z,64.30
2019-03-26T04:03:31.154Z,64.30
2019-03-26T04:08:22.799Z,64.90
2019-03-26T04:13:13.711Z,64.70
2019-03-26T04:18:05.358Z,64.90
2019-03-26T04:22:56.275Z,64.80
2019-03-26T04:27:47.251Z,65.30
2019-03-26T04:32:38.174Z,63.80
2019-03-26T04:37:29.082Z,63.00
2019-03-26T04:42:19.994Z,63.30
2019-03-26T04:47:10.945Z,63.90
2019-03-26T04:52:01.860Z,64.40
2019-03-26T04:56:54.294Z,65.40
2019-03-26T05:01:45.214Z,65.40
2019-03-26T05:06:38.343Z,66.10
2019-03-26T05:11:27.792Z,67.10
2019-03-26T05:16:19.514Z,66.30
2019-03-26T05:21:10.451Z,66.30
2019-03-26T05:26:02.105Z,66.30
2019-03-26T05:30:53.078Z,66.30
2019-03-26T05:35:43.981Z,66.90
2019-03-26T05:40:34.890Z,67.20
2019-03-26T05:45:25.844Z,67.40
2019-03-26T05:50:16.742Z,67.60
2019-03-26T05:55:07.878Z,67.60
2019-03-26T05:59:58.800Z,67.80
2019-03-26T06:04:49.724Z,67.60
2019-03-26T06:09:42.180Z,65.40
2019-03-26T06:14:33.087Z,65.40
2019-03-26T06:19:24.125Z,66.10
2019-03-26T06:24:15.030Z,66.30
2019-03-26T06:29:05.935Z,66.70
2019-03-26T06:33:56.862Z,67.10
2019-03-26T06:38:47.767Z,67.20
2019-03-26T06:43:38.698Z,67.50
2019-03-26T06:48:29.614Z,67.80
2019-03-26T06:53:20.559Z,66.20
2019-03-26T06:58:11.458Z,65.50
2019-03-26T07:03:02.434Z,65.60
2019-03-26T07:07:53.342Z,66.20
2019-03-26T07:12:45.000Z,66.80
2019-03-26T07:17:35.904Z,66.80
2019-03-26T07:22:27.553Z,67.40
2019-03-26T07:27:18.459Z,67.30
2019-03-26T07:32:09.370Z,67.70
2019-03-26T07:37:00.278Z,67.30
2019-03-26T07:41:51.960Z,65.50
2019-03-26T07:46:42.866Z,65.40
2019-03-26T07:51:33.776Z,65.80
2019-03-26T07:56:24.681Z,66.40
2019-03-26T08:01:16.417Z,67.00
2019-03-26T08:06:08.089Z,67.10
2019-03-26T08:10:58.990Z,67.10
2019-03-26T08:15:49.917Z,67.30
2019-03-26T08:20:40.819Z,67.60
2019-03-26T08:25:33.866Z,66.30
2019-03-26T08:30:22.658Z,65.60
2019-03-26T08:35:13.570Z,65.80
2019-03-26T08:40:04.476Z,65.90
2019-03-26T08:44:56.134Z,66.20
2019-03-26T08:49:47.046Z,66.20
2019-03-26T08:54:37.958Z,66.30
2019-03-26T08:59:29.610Z,66.30
2019-03-26T09:04:20.527Z,66.20
2019-03-26T09:09:11.944Z,65.00
2019-03-26T09:14:03.598Z,65.10
2019-03-26T09:18:54.506Z,65.00
2019-03-26T09:23:45.409Z,65.30
2019-03-26T09:28:37.058Z,65.50
2019-03-26T09:33:27.967Z,65.40
2019-03-26T09:38:19.615Z,65.30
2019-03-26T09:43:10.525Z,65.30
2019-03-26T09:48:01.421Z,64.20
2019-03-26T09:52:52.322Z,63.20
2019-03-26T09:57:43.234Z,63.40
2019-03-26T10:02:34.139Z,63.90
2019-03-26T10:07:25.047Z,64.20
2019-03-26T10:12:15.954Z,64.40
2019-03-26T10:17:06.865Z,64.50
2019-03-26T10:21:57.769Z,64.50
2019-03-26T10:26:49.419Z,62.60
2019-03-26T10:31:40.320Z,62.60
2019-03-26T10:36:31.966Z,63.00
2019-03-26T10:41:22.883Z,63.00
2019-03-26T10:46:13.785Z,63.40
2019-03-26T10:51:05.455Z,63.50
2019-03-26T10:55:56.349Z,63.50
2019-03-26T11:00:47.990Z,62.20
2019-03-26T11:05:38.904Z,62.20
2019-03-26T11:10:30.559Z,62.50
2019-03-26T11:15:21.466Z,62.50
2019-03-26T11:20:12.367Z,62.70
2019-03-26T11:25:04.019Z,63.90
2019-03-26T11:29:54.932Z,63.80
2019-03-26T11:34:46.587Z,61.70
2019-03-26T11:39:37.484Z,61.70
2019-03-26T11:44:29.141Z,61.50
2019-03-26T11:49:20.054Z,61.40
2019-03-26T11:54:10.962Z,61.80
2019-03-26T11:59:02.600Z,62.80
2019-03-26T12:03:53.506Z,62.80
2019-03-26T12:08:45.154Z,61.40
2019-03-26T12:13:36.053Z,61.40
2019-03-26T12:18:27.698Z,60.70
2019-03-26T12:23:19.343Z,61.20
2019-03-26T12:28:10.245Z,61.20
2019-03-26T12:33:01.898Z,62.80
2019-03-26T12:37:52.814Z,62.80
2019-03-26T12:42:43.730Z,63.50
2019-03-26T12:47:35.376Z,61.80
2019-03-26T12:52:26.275Z,61.70
2019-03-26T12:57:17.931Z,63.30
2019-03-26T13:02:08.826Z,63.30
2019-03-26T13:07:00.474Z,64.50
2019-03-26T13:11:52.127Z,65.00
2019-03-26T13:16:43.026Z,65.00
2019-03-26T13:21:37.406Z,64.40
2019-03-26T13:26:25.635Z,64.40
2019-03-26T13:31:16.547Z,64.40
2019-03-26T13:36:07.450Z,65.00
2019-03-26T13:40:58.358Z,65.60
2019-03-26T13:45:49.268Z,66.20
2019-03-26T13:50:40.166Z,66.40
2019-03-26T13:55:31.819Z,65.30
2019-03-26T14:00:30.810Z,65.30
2019-03-26T14:05:23.337Z,65.30
2019-03-26T14:10:14.240Z,65.20
2019-03-26T14:15:05.195Z,65.50
2019-03-26T14:19:57.570Z,65.80
2019-03-26T14:24:48.488Z,65.70
2019-03-26T14:29:39.402Z,66.00
2019-03-26T14:34:31.132Z,63.00
2019-03-26T14:39:22.841Z,64.00
2019-03-26T14:44:13.866Z,63.90
2019-03-26T14:49:04.768Z,64.10
2019-03-26T14:53:55.670Z,64.30
2019-03-26T14:58:46.595Z,64.70
2019-03-26T15:03:37.493Z,65.20
2019-03-26T15:08:28.414Z,63.60
2019-03-26T15:13:19.366Z,62.30
2019-03-26T15:18:10.295Z,62.30
2019-03-26T15:23:01.199Z,62.30
2019-03-26T15:27:52.122Z,62.90
2019-03-26T15:32:43.031Z,62.90
2019-03-26T15:37:33.935Z,62.90
2019-03-26T15:42:24.854Z,62.80
2019-03-26T15:47:15.760Z,61.40
2019-03-26T15:52:06.726Z,61.60
2019-03-26T15:56:57.659Z,61.90
2019-03-26T16:01:48.562Z,63.20
2019-03-26T16:06:39.507Z,63.60
2019-03-26T16:11:36.103Z,63.60
2019-03-26T16:16:22.088Z,63.60
2019-03-26T16:21:12.997Z,61.10
2019-03-26T16:26:03.929Z,61.10
2019-03-26T16:30:54.886Z,62.30
2019-03-26T16:35:45.791Z,62.70
2019-03-26T16:40:36.707Z,63.20
2019-03-26T16:45:27.614Z,62.90
2019-03-26T16:50:18.521Z,63.00
2019-03-26T16:55:09.432Z,62.10
2019-03-26T17:00:00.417Z,61.70
2019-03-26T17:04:51.269Z,62.30
2019-03-26T17:09:42.170Z,63.00
2019-03-26T17:14:33.831Z,63.90
2019-03-26T17:19:24.849Z,63.80
2019-03-26T17:24:15.896Z,64.40
2019-03-26T17:29:06.806Z,63.20
2019-03-26T17:33:57.706Z,62.40
2019-03-26T17:38:48.619Z,62.70
2019-03-26T17:43:39.590Z,63.10
2019-03-26T17:48:30.506Z,63.80
2019-03-26T17:53:21.454Z,64.20
2019-03-26T17:58:13.161Z,64.20
2019-03-26T18:03:04.077Z,64.20
2019-03-26T18:07:55.012Z,63.10
2019-03-26T18:12:47.450Z,63.60
2019-03-26T18:17:38.390Z,63.60
2019-03-26T18:22:29.422Z,64.00
2019-03-26T18:27:21.142Z,64.80
2019-03-26T18:32:12.170Z,64.80
2019-03-26T18:37:03.179Z,65.30
2019-03-26T18:41:54.205Z,64.10
2019-03-26T18:46:45.218Z,63.40
2019-03-26T18:51:36.135Z,63.80
2019-03-26T18:56:27.130Z,64.20
2019-03-26T19:01:18.079Z,64.60
2019-03-26T19:06:08.995Z,65.00
2019-03-26T19:10:59.918Z,65.10
2019-03-26T19:15:51.143Z,65.30
2019-03-26T19:20:42.075Z,64.00
2019-03-26T19:25:32.978Z,63.50
2019-03-26T19:30:23.894Z,64.20
2019-03-26T19:35:15.551Z,64.90
2019-03-26T19:40:06.574Z,64.90
2019-03-26T19:44:58.267Z,65.30
2019-03-26T19:49:49.174Z,65.30
2019-03-26T19:54:40.086Z,65.10
2019-03-26T19:59:31.019Z,63.90
2019-03-26T20:04:22.002Z,63.90
2019-03-26T20:09:13.654Z,64.80
2019-03-26T20:14:04.624Z,64.70
2019-03-26T20:18:55.542Z,65.00
2019-03-26T20:23:46.467Z,65.30
2019-03-26T20:28:37.503Z,65.70
2019-03-26T20:33:28.499Z,65.00
2019-03-26T20:38:20.150Z,64.30
2019-03-26T20:43:11.087Z,64.30
2019-03-26T20:48:02.062Z,64.60
2019-03-26T20:52:53.242Z,64.90
2019-03-26T20:57:44.939Z,65.40
2019-03-26T21:02:37.386Z,65.80
2019-03-26T21:07:28.295Z,65.70
2019-03-26T21:12:19.223Z,64.90
2019-03-26T21:17:10.135Z,64.50
2019-03-26T21:22:01.072Z,63.90
2019-03-26T21:26:51.986Z,64.30
2019-03-26T21:31:42.930Z,64.50
2019-03-26T21:36:34.572Z,65.00
2019-03-26T21:41:26.283Z,65.40
2019-03-26T21:46:17.298Z,65.40
2019-03-26T21:51:08.210Z,64.80
2019-03-26T21:56:06.334Z,64.60
2019-03-26T22:00:50.155Z,63.90
2019-03-26T22:05:41.060Z,64.30
2019-03-26T22:10:32.197Z,64.50
2019-03-26T22:15:23.218Z,64.90
2019-03-26T22:20:14.137Z,65.00
2019-03-26T22:25:05.039Z,65.00
2019-03-26T22:29:55.973Z,65.30
2019-03-26T22:34:46.886Z,64.10
2019-03-26T22:39:37.815Z,63.50
2019-03-26T22:44:31.628Z,63.80
2019-03-26T22:49:20.431Z,64.60
2019-03-26T22:54:11.336Z,64.60
2019-03-26T22:59:02.333Z,64.90
2019-03-26T23:03:54.051Z,65.50
2019-03-26T23:08:45.712Z,63.70
2019-03-26T23:13:37.368Z,63.70
2019-03-26T23:18:28.330Z,63.60
2019-03-26T23:23:19.255Z,63.90
2019-03-26T23:28:10.194Z,64.30
2019-03-26T23:33:01.191Z,64.50
2019-03-26T23:37:52.118Z,64.20
2019-03-26T23:42:43.025Z,65.00
2019-03-26T23:47:33.946Z,66.20
2019-03-26T23:52:24.856Z,64.70
2019-03-26T23:57:15.798Z,63.90
